createdAt,value
2022-08-26T00:02:07.144Z,99.10
2022-08-26T00:04:35.826Z,99.20
2022-08-26T00:07:04.681Z,99.50
2022-08-26T00:09:38.898Z,99.70
2022-08-26T00:12:09.297Z,99.90
2022-08-26T00:14:40.485Z,99.90
2022-08-26T00:17:08.749Z,99.90
2022-08-26T00:19:37.389Z,99.90
2022-08-26T00:22:06.017Z,99.90
2022-08-26T00:24:35.510Z,99.90
2022-08-26T00:27:03.418Z,99.90
2022-08-26T00:29:34.830Z,99.90
2022-08-26T00:32:06.231Z,99.90
2022-08-26T00:34:34.705Z,99.90
2022-08-26T00:37:02.725Z,99.90
2022-08-26T00:39:31.965Z,99.90
2022-08-26T00:42:01.481Z,99.90
2022-08-26T00:44:30.624Z,99.90
2022-08-26T00:47:03.684Z,99.80
2022-08-26T00:49:39.580Z,99.60
2022-08-26T00:52:13.265Z,99.40
2022-08-26T00:54:50.420Z,99.30
2022-08-26T00:57:22.311Z,99.10
2022-08-26T00:59:54.382Z,98.90
2022-08-26T01:02:22.702Z,98.80
2022-08-26T01:04:55.834Z,98.80
2022-08-26T01:07:27.584Z,98.60
2022-08-26T01:09:59.705Z,98.60
2022-08-26T01:12:32.381Z,98.60
2022-08-26T01:15:02.087Z,98.60
2022-08-26T01:17:30.099Z,98.50
2022-08-26T01:20:08.637Z,98.40
2022-08-26T01:22:46.865Z,98.30
2022-08-26T01:25:16.135Z,98.20
2022-08-26T01:27:44.965Z,98.20
2022-08-26T01:30:17.769Z,98.10
2022-08-26T01:32:47.082Z,98.10
2022-08-26T01:35:15.106Z,98.00
2022-08-26T01:37:44.567Z,98.00
2022-08-26T01:40:17.854Z,98.00
2022-08-26T01:42:46.592Z,97.80
2022-08-26T01:45:18.344Z,97.80
2022-08-26T01:47:49.660Z,98.00
2022-08-26T01:50:30.396Z,97.60
2022-08-26T01:53:05.726Z,97.50
2022-08-26T01:55:35.261Z,97.50
2022-08-26T01:58:09.680Z,97.40
2022-08-26T02:00:39.190Z,97.40
2022-08-26T02:03:17.960Z,97.30
2022-08-26T02:05:52.717Z,97.10
2022-08-26T02:08:26.398Z,97.10
2022-08-26T02:10:55.361Z,97.10
2022-08-26T02:13:27.512Z,97.10
2022-08-26T02:15:56.313Z,97.10
2022-08-26T02:18:25.505Z,97.00
2022-08-26T02:20:55.130Z,96.90
2022-08-26T02:23:25.564Z,96.90
2022-08-26T02:25:59.383Z,96.80
2022-08-26T02:28:32.056Z,96.70
2022-08-26T02:31:00.302Z,96.70
2022-08-26T02:33:30.994Z,96.60
2022-08-26T02:35:58.980Z,96.50
2022-08-26T02:38:29.414Z,96.40
2022-08-26T02:40:57.578Z,96.30
2022-08-26T02:43:31.406Z,96.20
2022-08-26T02:46:02.310Z,96.10
2022-08-26T02:48:31.056Z,96.20
2022-08-26T02:51:00.703Z,96.10
2022-08-26T02:53:32.089Z,96.10
2022-08-26T02:56:04.383Z,96.00
2022-08-26T02:58:32.451Z,96.00
2022-08-26T03:01:01.550Z,96.30
2022-08-26T03:03:30.144Z,95.90
2022-08-26T03:05:58.536Z,96.00
2022-08-26T03:08:26.797Z,96.00
2022-08-26T03:10:56.708Z,95.90
2022-08-26T03:13:24.674Z,95.80
2022-08-26T03:15:52.695Z,95.80
2022-08-26T03:18:20.734Z,95.70
2022-08-26T03:20:49.254Z,95.90
2022-08-26T03:23:17.198Z,96.00
2022-08-26T03:25:50.384Z,96.00
2022-08-26T03:28:20.308Z,95.90
2022-08-26T03:30:48.058Z,95.90
2022-08-26T03:33:17.096Z,95.90
2022-08-26T03:35:47.864Z,96.10
2022-08-26T03:38:19.749Z,96.10
2022-08-26T03:40:47.858Z,95.90
2022-08-26T03:43:17.681Z,95.60
2022-08-26T03:45:47.516Z,95.50
2022-08-26T03:48:15.573Z,95.40
2022-08-26T03:50:44.022Z,95.40
2022-08-26T03:53:12.965Z,95.30
2022-08-26T03:55:42.276Z,95.40
2022-08-26T03:58:11.918Z,95.20
2022-08-26T04:00:39.978Z,95.20
2022-08-26T04:03:14.758Z,95.10
2022-08-26T04:05:46.126Z,95.10
2022-08-26T04:08:14.711Z,95.00
2022-08-26T04:10:43.493Z,95.30
2022-08-26T04:13:12.170Z,94.60
2022-08-26T04:15:40.419Z,94.30
2022-08-26T04:18:09.796Z,94.30
2022-08-26T04:20:37.849Z,94.40
2022-08-26T04:23:05.965Z,94.40
2022-08-26T04:25:33.989Z,94.70
2022-08-26T04:28:04.233Z,94.70
2022-08-26T04:30:32.262Z,94.70
2022-08-26T04:33:00.896Z,94.60
2022-08-26T04:35:30.662Z,94.60
2022-08-26T04:37:58.940Z,94.50
2022-08-26T04:40:27.665Z,94.50
2022-08-26T04:42:55.832Z,94.50
2022-08-26T04:45:24.667Z,94.80
2022-08-26T04:47:57.201Z,95.00
2022-08-26T04:50:26.583Z,95.10
2022-08-26T04:52:56.449Z,95.10
2022-08-26T04:55:25.252Z,95.00
2022-08-26T04:58:10.206Z,94.90
2022-08-26T05:00:39.551Z,94.80
2022-08-26T05:03:10.248Z,94.70
2022-08-26T05:05:43.190Z,94.70
2022-08-26T05:08:13.603Z,94.60
2022-08-26T05:10:42.406Z,94.50
2022-08-26T05:13:15.159Z,94.40
2022-08-26T05:15:44.388Z,94.40
2022-08-26T05:18:14.772Z,94.30
2022-08-26T05:20:44.802Z,94.20
2022-08-26T05:23:15.208Z,94.10
2022-08-26T05:25:46.763Z,94.10
2022-08-26T05:28:16.638Z,94.10
2022-08-26T05:30:44.880Z,94.20
2022-08-26T05:33:13.517Z,94.10
2022-08-26T05:35:42.520Z,94.10
2022-08-26T05:38:13.206Z,94.00
2022-08-26T05:40:45.712Z,94.00
2022-08-26T05:43:14.549Z,93.90
2022-08-26T05:45:46.122Z,93.80
2022-08-26T05:48:15.355Z,93.80
2022-08-26T05:50:45.594Z,93.90
2022-08-26T05:53:15.228Z,93.80
2022-08-26T05:55:48.896Z,93.80
2022-08-26T05:58:19.991Z,93.90
2022-08-26T06:00:57.902Z,93.80
2022-08-26T06:03:26.225Z,93.80
2022-08-26T06:05:54.655Z,93.90
2022-08-26T06:08:23.167Z,94.00
2022-08-26T06:10:55.093Z,94.00
2022-08-26T06:13:25.588Z,94.00
2022-08-26T06:15:55.333Z,94.40
2022-08-26T06:18:27.314Z,94.90
2022-08-26T06:20:58.399Z,95.30
2022-08-26T06:23:46.262Z,95.30
2022-08-26T06:26:16.980Z,95.70
2022-08-26T06:28:45.754Z,95.70
2022-08-26T06:31:14.722Z,95.80
2022-08-26T06:33:43.320Z,95.60
2022-08-26T06:36:16.683Z,95.40
2022-08-26T06:38:47.300Z,95.60
2022-08-26T06:41:16.989Z,95.60
2022-08-26T06:43:45.706Z,95.80
2022-08-26T06:46:16.504Z,95.30
2022-08-26T06:48:44.748Z,95.80
2022-08-26T06:51:14.657Z,95.60
2022-08-26T06:53:45.517Z,95.10
2022-08-26T06:56:14.436Z,95.00
2022-08-26T06:58:44.117Z,94.90
2022-08-26T07:01:20.004Z,95.20
2022-08-26T07:03:50.018Z,95.60
2022-08-26T07:06:19.842Z,95.00
2022-08-26T07:08:48.320Z,94.80
2022-08-26T07:11:16.869Z,95.10
2022-08-26T07:13:46.832Z,95.00
2022-08-26T07:16:17.646Z,94.50
2022-08-26T07:18:46.675Z,94.90
2022-08-26T07:21:16.572Z,95.50
2022-08-26T07:23:46.393Z,94.90
2022-08-26T07:26:17.724Z,95.40
2022-08-26T07:28:50.544Z,95.30
2022-08-26T07:31:26.099Z,95.40
2022-08-26T07:33:54.606Z,95.50
2022-08-26T07:36:24.086Z,95.80
2022-08-26T07:38:52.277Z,96.60
2022-08-26T07:41:23.209Z,97.40
2022-08-26T07:43:52.893Z,96.70
2022-08-26T07:46:26.919Z,95.80
2022-08-26T07:48:55.541Z,95.40
2022-08-26T07:51:24.816Z,95.00
2022-08-26T07:53:53.420Z,95.00
2022-08-26T07:56:22.922Z,95.50
2022-08-26T07:58:52.857Z,96.10
2022-08-26T08:01:21.583Z,95.20
2022-08-26T08:03:51.538Z,94.80
2022-08-26T08:06:20.420Z,94.80
2022-08-26T08:08:50.915Z,94.50
2022-08-26T08:11:21.189Z,93.90
2022-08-26T08:13:56.001Z,93.60
2022-08-26T08:16:26.729Z,93.10
2022-08-26T08:18:55.788Z,93.60
2022-08-26T08:21:24.661Z,93.90
2022-08-26T08:23:53.763Z,93.70
2022-08-26T08:26:22.397Z,93.20
2022-08-26T08:28:50.818Z,93.10
2022-08-26T08:31:52.143Z,92.20
2022-08-26T08:34:12.889Z,92.90
2022-08-26T08:36:40.933Z,93.00
2022-08-26T08:39:09.656Z,91.40
2022-08-26T08:41:54.373Z,91.80
2022-08-26T08:47:04.832Z,91.20
2022-08-26T08:49:35.733Z,91.50
2022-08-26T08:52:10.698Z,90.10
2022-08-26T08:54:39.408Z,89.30
2022-08-26T08:57:16.547Z,89.70
2022-08-26T09:00:02.433Z,90.40
2022-08-26T09:02:36.909Z,88.60
2022-08-26T09:05:22.443Z,90.10
2022-08-26T09:07:54.805Z,90.00
2022-08-26T09:10:33.167Z,91.00
2022-08-26T09:13:06.621Z,91.00
2022-08-26T09:15:47.186Z,92.00
2022-08-26T09:18:28.513Z,90.90
2022-08-26T09:21:03.205Z,91.40
2022-08-26T09:23:33.154Z,90.70
2022-08-26T09:26:16.796Z,91.80
2022-08-26T09:28:49.145Z,89.00
2022-08-26T09:31:23.327Z,91.10
2022-08-26T09:34:07.211Z,90.00
2022-08-26T09:36:41.396Z,90.50
2022-08-26T09:39:31.973Z,90.60
2022-08-26T09:42:06.527Z,89.80
2022-08-26T09:44:36.599Z,88.30
2022-08-26T09:47:07.604Z,90.30
2022-08-26T09:49:38.005Z,88.20
2022-08-26T09:52:21.419Z,87.60
2022-08-26T09:55:01.108Z,88.40
2022-08-26T09:57:33.857Z,87.30
2022-08-26T10:00:03.333Z,86.70
2022-08-26T10:02:47.934Z,86.80
2022-08-26T10:05:27.527Z,86.50
2022-08-26T10:08:00.164Z,83.30
2022-08-26T10:10:33.046Z,86.60
2022-08-26T10:13:06.911Z,87.40
2022-08-26T10:15:50.079Z,84.70
2022-08-26T10:18:25.097Z,85.10
2022-08-26T10:20:59.524Z,86.90
2022-08-26T10:23:33.986Z,85.60
2022-08-26T10:26:09.582Z,85.40
2022-08-26T10:28:42.321Z,84.10
2022-08-26T10:31:27.799Z,83.20
2022-08-26T10:33:59.997Z,83.20
2022-08-26T10:37:10.543Z,84.20
2022-08-26T10:39:46.056Z,82.90
2022-08-26T10:42:20.806Z,84.80
2022-08-26T10:44:52.373Z,83.60
2022-08-26T10:47:27.024Z,85.20
2022-08-26T10:50:00.451Z,83.10
2022-08-26T10:52:41.579Z,81.10
2022-08-26T10:55:17.977Z,83.90
2022-08-26T10:57:52.946Z,83.50
2022-08-26T11:00:44.154Z,85.00
2022-08-26T11:03:24.573Z,85.30
2022-08-26T11:06:21.161Z,88.30
2022-08-26T11:08:50.993Z,84.80
2022-08-26T11:11:51.082Z,81.50
2022-08-26T11:14:40.698Z,79.30
2022-08-26T11:17:56.778Z,79.30
2022-08-26T11:20:37.380Z,82.90
2022-08-26T11:23:26.711Z,84.50
2022-08-26T11:26:35.433Z,83.10
2022-08-26T11:29:04.446Z,83.90
2022-08-26T11:32:04.310Z,83.80
2022-08-26T11:34:56.589Z,84.20
2022-08-26T11:37:40.492Z,81.20
2022-08-26T11:40:13.053Z,82.40
2022-08-26T11:42:44.500Z,81.30
2022-08-26T11:45:23.405Z,85.50
2022-08-26T11:47:51.801Z,83.10
2022-08-26T11:50:23.563Z,86.30
2022-08-26T11:52:56.621Z,79.90
2022-08-26T11:55:25.431Z,80.90
2022-08-26T11:57:56.220Z,82.10
2022-08-26T12:00:33.578Z,84.30
2022-08-26T12:03:07.967Z,80.20
2022-08-26T12:05:39.496Z,84.50
2022-08-26T12:08:11.953Z,83.00
2022-08-26T12:10:40.123Z,83.90
2022-08-26T12:13:09.078Z,82.40
2022-08-26T12:15:38.388Z,76.80
2022-08-26T12:18:22.086Z,80.50
2022-08-26T12:20:59.521Z,77.10
2022-08-26T12:23:37.957Z,79.60
2022-08-26T12:26:11.422Z,77.30
2022-08-26T12:28:50.891Z,78.20
2022-08-26T12:31:27.569Z,76.70
2022-08-26T12:33:56.864Z,76.70
2022-08-26T12:36:31.506Z,77.90
2022-08-26T12:39:07.735Z,76.30
2022-08-26T12:41:41.543Z,75.90
2022-08-26T12:44:09.882Z,74.90
2022-08-26T12:46:39.198Z,75.90
2022-08-26T12:49:07.258Z,76.30
2022-08-26T12:51:41.889Z,76.20
2022-08-26T12:54:15.941Z,75.50
2022-08-26T12:56:43.962Z,73.50
2022-08-26T12:59:25.084Z,74.50
2022-08-26T13:01:55.626Z,74.40
2022-08-26T13:04:38.949Z,74.10
2022-08-26T13:07:22.159Z,72.50
2022-08-26T13:09:51.597Z,74.30
2022-08-26T13:12:31.061Z,73.00
2022-08-26T13:15:00.786Z,73.10
2022-08-26T13:17:31.582Z,74.30
2022-08-26T13:20:04.106Z,73.20
2022-08-26T13:22:32.961Z,73.40
2022-08-26T13:25:01.216Z,68.30
2022-08-26T13:27:29.257Z,71.80
2022-08-26T13:29:59.040Z,71.20
2022-08-26T13:32:27.807Z,68.60
2022-08-26T13:34:58.555Z,69.90
2022-08-26T13:37:34.913Z,70.90
2022-08-26T13:40:04.856Z,69.50
2022-08-26T13:42:33.126Z,68.40
2022-08-26T13:45:02.886Z,71.30
2022-08-26T13:47:31.152Z,70.30
2022-08-26T13:50:00.502Z,70.90
2022-08-26T13:52:30.521Z,71.90
2022-08-26T13:55:00.053Z,71.20
2022-08-26T13:57:28.539Z,71.30
2022-08-26T13:59:58.871Z,71.70
2022-08-26T14:02:27.542Z,70.80
2022-08-26T14:04:55.868Z,70.20
2022-08-26T14:07:26.653Z,68.60
2022-08-26T14:09:54.887Z,70.40
2022-08-26T14:12:22.885Z,69.10
2022-08-26T14:14:51.138Z,69.20
2022-08-26T14:17:22.587Z,69.70
2022-08-26T14:19:52.131Z,70.90
2022-08-26T14:22:21.719Z,71.00
2022-08-26T14:24:51.666Z,69.60
2022-08-26T14:27:19.996Z,69.10
2022-08-26T14:29:48.098Z,70.00
2022-08-26T14:32:22.931Z,69.10
2022-08-26T14:34:51.688Z,70.10
2022-08-26T14:37:23.270Z,70.70
2022-08-26T14:39:52.986Z,69.50
2022-08-26T14:42:25.842Z,69.10
2022-08-26T14:45:02.624Z,70.20
2022-08-26T14:47:39.236Z,69.90
2022-08-26T14:50:14.284Z,70.30
2022-08-26T14:53:12.688Z,68.20
2022-08-26T14:55:55.538Z,69.70
2022-08-26T14:58:52.414Z,69.40
2022-08-26T15:01:26.262Z,70.40
2022-08-26T15:04:12.854Z,71.00
2022-08-26T15:06:46.159Z,68.30
2022-08-26T15:09:25.955Z,67.60
2022-08-26T15:11:55.699Z,67.90
2022-08-26T15:14:32.920Z,69.00
2022-08-26T15:17:01.961Z,68.60
2022-08-26T15:19:37.240Z,68.30
2022-08-26T15:22:05.985Z,69.80
2022-08-26T15:24:39.196Z,70.80
2022-08-26T15:27:09.105Z,68.20
2022-08-26T15:29:43.941Z,68.80
2022-08-26T15:32:24.685Z,70.70
2022-08-26T15:34:55.589Z,72.30
2022-08-26T15:37:24.067Z,72.50
2022-08-26T15:39:58.036Z,71.20
2022-08-26T15:42:28.175Z,73.20
2022-08-26T15:44:56.350Z,73.50
2022-08-26T15:47:24.626Z,72.30
2022-08-26T15:49:52.719Z,70.60
2022-08-26T15:52:23.614Z,70.40
2022-08-26T15:54:54.099Z,70.70
2022-08-26T15:58:11.456Z,71.00
2022-08-26T16:01:10.248Z,70.00
2022-08-26T16:03:40.376Z,70.70
2022-08-26T16:06:39.299Z,73.20
2022-08-26T16:09:37.868Z,73.10
2022-08-26T16:12:19.291Z,72.60
2022-08-26T16:14:52.759Z,73.40
2022-08-26T16:17:22.323Z,71.00
2022-08-26T16:19:54.801Z,69.70
2022-08-26T16:22:22.697Z,70.50
2022-08-26T16:24:54.442Z,71.60
2022-08-26T16:27:23.232Z,71.00
2022-08-26T16:29:51.349Z,70.90
2022-08-26T16:32:19.360Z,70.40
2022-08-26T16:34:56.295Z,71.30
2022-08-26T16:37:24.559Z,70.80
2022-08-26T16:39:52.551Z,69.30
2022-08-26T16:42:20.587Z,68.60
2022-08-26T16:44:48.670Z,69.60
2022-08-26T16:47:18.233Z,70.20
2022-08-26T16:49:47.937Z,72.50
2022-08-26T16:52:16.426Z,70.50
2022-08-26T16:54:44.435Z,70.40
2022-08-26T16:57:13.819Z,71.40
2022-08-26T16:59:42.057Z,72.40
2022-08-26T17:02:11.757Z,71.90
2022-08-26T17:04:41.091Z,73.50
2022-08-26T17:07:15.513Z,74.90
2022-08-26T17:09:43.489Z,76.60
2022-08-26T17:12:11.502Z,77.10
2022-08-26T17:14:39.427Z,77.50
2022-08-26T17:17:07.378Z,78.70
2022-08-26T17:19:40.890Z,80.10
2022-08-26T17:22:16.899Z,80.30
2022-08-26T17:24:45.018Z,81.10
2022-08-26T17:27:13.049Z,81.60
2022-08-26T17:29:41.108Z,82.20
2022-08-26T17:32:09.071Z,82.80
2022-08-26T17:34:37.113Z,83.40
2022-08-26T17:37:05.273Z,83.90
2022-08-26T17:39:34.536Z,84.40
2022-08-26T17:42:02.542Z,84.90
2022-08-26T17:44:30.512Z,85.50
2022-08-26T17:46:58.464Z,85.80
2022-08-26T17:49:27.358Z,86.50
2022-08-26T17:51:57.869Z,87.00
2022-08-26T17:54:27.630Z,87.90
2022-08-26T17:56:59.636Z,88.50
2022-08-26T17:59:30.760Z,88.40
2022-08-26T18:01:59.633Z,88.80
2022-08-26T18:04:27.763Z,88.70
2022-08-26T18:06:55.858Z,89.40
2022-08-26T18:09:23.809Z,89.50
2022-08-26T18:11:51.838Z,89.50
2022-08-26T18:14:21.774Z,90.00
2022-08-26T18:16:50.965Z,90.50
2022-08-26T18:19:18.966Z,90.50
2022-08-26T18:21:46.946Z,90.40
2022-08-26T18:24:15.106Z,90.30
2022-08-26T18:26:48.240Z,90.40
2022-08-26T18:29:18.265Z,89.50
2022-08-26T18:31:48.465Z,90.30
2022-08-26T18:34:16.912Z,90.20
2022-08-26T18:36:45.100Z,91.70
2022-08-26T18:39:15.993Z,92.90
2022-08-26T18:41:46.935Z,94.30
2022-08-26T18:44:16.393Z,97.50
2022-08-26T18:46:46.129Z,99.90
2022-08-26T18:49:17.489Z,99.90
2022-08-26T18:51:46.556Z,99.90
2022-08-26T18:56:51.706Z,99.90
2022-08-26T18:59:20.310Z,99.90
2022-08-26T19:01:58.915Z,99.90
2022-08-26T19:04:28.515Z,99.90
2022-08-26T19:06:57.020Z,99.90
2022-08-26T19:09:27.877Z,99.90
2022-08-26T19:14:25.091Z,99.90
2022-08-26T19:16:53.374Z,99.90
2022-08-26T19:19:24.486Z,99.90
2022-08-26T19:21:54.472Z,99.90
2022-08-26T19:24:23.193Z,99.90
2022-08-26T19:26:59.774Z,99.90
2022-08-26T19:29:33.043Z,99.90
2022-08-26T19:32:01.910Z,99.90
2022-08-26T19:34:30.558Z,99.90
2022-08-26T19:36:59.897Z,99.90
2022-08-26T19:39:28.073Z,99.90
2022-08-26T19:41:56.205Z,99.90
2022-08-26T19:44:44.701Z,99.90
2022-08-26T19:47:13.293Z,99.90
2022-08-26T19:49:41.447Z,99.90
2022-08-26T19:52:12.212Z,99.90
2022-08-26T19:54:40.925Z,99.90
2022-08-26T19:57:09.035Z,99.90
2022-08-26T19:59:37.160Z,99.90
2022-08-26T20:02:08.620Z,99.90
2022-08-26T20:04:39.085Z,99.90
2022-08-26T20:07:07.159Z,99.90
2022-08-26T20:09:36.857Z,99.90
2022-08-26T20:12:06.890Z,99.90
2022-08-26T20:14:35.878Z,99.90
2022-08-26T20:17:04.649Z,99.90
2022-08-26T20:19:50.476Z,99.90
2022-08-26T20:22:19.306Z,99.90
2022-08-26T20:24:53.161Z,99.90
2022-08-26T20:27:27.405Z,99.90
2022-08-26T20:30:07.899Z,99.90
2022-08-26T20:32:36.350Z,99.90
2022-08-26T20:35:06.604Z,99.90
2022-08-26T20:37:35.612Z,99.90
2022-08-26T20:40:06.620Z,99.90
2022-08-26T20:42:34.698Z,99.90
2022-08-26T20:45:03.199Z,99.90
2022-08-26T20:47:31.401Z,99.90
2022-08-26T20:49:59.751Z,99.90
2022-08-26T20:52:27.874Z,99.90
2022-08-26T20:54:55.922Z,99.90
2022-08-26T20:57:25.390Z,99.90
2022-08-26T20:59:53.498Z,99.90
2022-08-26T21:02:21.479Z,99.90
2022-08-26T21:04:49.504Z,99.90
2022-08-26T21:07:17.708Z,99.90
2022-08-26T21:09:45.797Z,99.90
2022-08-26T21:12:13.830Z,99.90
2022-08-26T21:14:47.728Z,99.90
2022-08-26T21:17:17.429Z,99.90
2022-08-26T21:19:45.409Z,99.90
2022-08-26T21:22:14.089Z,99.90
2022-08-26T21:24:42.081Z,99.90
2022-08-26T21:27:10.057Z,99.90
2022-08-26T21:29:38.308Z,99.90
2022-08-26T21:32:07.936Z,99.90
2022-08-26T21:34:37.989Z,99.90
2022-08-26T21:37:13.327Z,99.90
2022-08-26T21:39:44.954Z,99.90
2022-08-26T21:42:13.000Z,99.90
2022-08-26T21:44:41.055Z,99.90
2022-08-26T21:47:10.504Z,99.90
2022-08-26T21:49:38.912Z,99.90
2022-08-26T21:52:07.083Z,99.90
2022-08-26T21:54:35.367Z,99.90
2022-08-26T21:57:03.305Z,99.90
2022-08-26T21:59:31.289Z,99.90
2022-08-26T22:01:59.470Z,99.90
2022-08-26T22:04:29.025Z,99.90
2022-08-26T22:06:58.845Z,99.90
2022-08-26T22:09:28.894Z,99.90
2022-08-26T22:11:57.431Z,99.90
2022-08-26T22:14:30.361Z,99.90
2022-08-26T22:17:00.025Z,99.90
2022-08-26T22:19:31.692Z,99.90
2022-08-26T22:22:03.752Z,99.90
2022-08-26T22:24:31.731Z,99.90
2022-08-26T22:26:59.807Z,99.90
2022-08-26T22:29:31.052Z,99.90
2022-08-26T22:31:59.907Z,99.90
2022-08-26T22:34:29.514Z,99.90
2022-08-26T22:36:57.651Z,99.90
2022-08-26T22:39:27.210Z,99.90
2022-08-26T22:41:56.762Z,99.90
2022-08-26T22:44:24.974Z,99.90
2022-08-26T22:46:55.061Z,99.90
2022-08-26T22:49:23.865Z,99.90
2022-08-26T22:51:53.179Z,99.90
2022-08-26T22:54:21.424Z,99.90
2022-08-26T22:56:49.618Z,99.90
2022-08-26T22:59:18.038Z,99.90
2022-08-26T23:01:46.868Z,99.90
2022-08-26T23:04:15.470Z,99.90
2022-08-26T23:06:47.322Z,99.90
2022-08-26T23:09:18.417Z,99.90
2022-08-26T23:11:47.672Z,99.90
2022-08-26T23:14:16.315Z,99.90
2022-08-26T23:16:44.720Z,99.90
2022-08-26T23:19:15.216Z,99.90
2022-08-26T23:21:43.645Z,99.90
2022-08-26T23:24:11.755Z,99.90
2022-08-26T23:26:42.542Z,99.90
2022-08-26T23:29:12.735Z,99.90
2022-08-26T23:31:42.184Z,99.90
2022-08-26T23:34:27.799Z,99.90
2022-08-26T23:36:58.337Z,99.90
2022-08-26T23:39:26.491Z,99.90
2022-08-26T23:41:56.872Z,99.90
2022-08-26T23:44:26.448Z,99.90
2022-08-26T23:46:54.902Z,99.90
2022-08-26T23:49:23.201Z,99.90
2022-08-26T23:52:08.526Z,99.90
2022-08-26T23:54:36.649Z,99.90
2022-08-26T23:57:06.696Z,99.90
2022-08-26T23:59:35.101Z,99.90
